Time;durP1;ratioP1;P1;durP2;ratioP2;P2;SDS_P1;SDS_P2;PMS_P1;PMS_P2;Temp;Humidity;BMP_temperature;BMP_pressure;BME280_temperature;BME280_humidity;BME280_pressure;Samples;Min_cycle;Max_cycle;Signal;HPM_P1;HPM_P2
2023/08/16 00:00:46;;;;;;;3.75;2.65;;;23.30;65.10;;;;;;5021340;28;20053;-85
2023/08/16 00:03:15;;;;;;;8.77;3.17;;;23.30;65.20;;;;;;5020521;28;20762;-84
2023/08/16 00:05:43;;;;;;;2.80;2.58;;;23.30;65.30;;;;;;5021636;28;20080;-84
2023/08/16 00:08:10;;;;;;;3.75;2.70;;;23.30;65.40;;;;;;5020495;28;20065;-85
2023/08/16 00:10:38;;;;;;;3.95;3.00;;;23.30;65.50;;;;;;5019827;28;20056;-86
2023/08/16 00:13:05;;;;;;;4.90;3.08;;;23.30;65.50;;;;;;5019055;28;20405;-85
2023/08/16 00:15:32;;;;;;;6.43;3.08;;;23.30;65.60;;;;;;5020131;28;20503;-86
2023/08/16 00:18:00;;;;;;;3.00;2.70;;;23.30;65.70;;;;;;5021437;28;20449;-85
2023/08/16 00:20:28;;;;;;;4.03;3.08;;;23.20;66.40;;;;;;5020414;28;20080;-89
2023/08/16 00:22:56;;;;;;;3.90;2.95;;;23.20;65.70;;;;;;5027224;28;20401;-85
2023/08/16 00:25:23;;;;;;;3.70;2.83;;;23.20;65.70;;;;;;5020459;28;20084;-87
2023/08/16 00:27:50;;;;;;;3.33;2.90;;;23.20;65.70;;;;;;5020412;28;20524;-85
2023/08/16 00:30:18;;;;;;;9.75;6.53;;;23.20;65.70;;;;;;5020452;28;20370;-84
2023/08/16 00:32:45;;;;;;;10.20;4.95;;;23.20;65.70;;;;;;5023938;28;20054;-88
2023/08/16 00:35:12;;;;;;;6.85;3.80;;;23.20;65.80;;;;;;5023380;28;20053;-86
2023/08/16 00:37:41;;;;;;;5.57;3.67;;;23.20;65.90;;;;;;5024464;28;20068;-84
2023/08/16 00:40:09;;;;;;;4.13;3.13;;;23.20;66.00;;;;;;5024717;28;20064;-84
2023/08/16 00:42:37;;;;;;;5.97;3.20;;;23.20;66.00;;;;;;5023248;28;20064;-87
2023/08/16 00:45:05;;;;;;;4.22;3.30;;;23.20;66.10;;;;;;5024294;28;20398;-88
2023/08/16 00:47:32;;;;;;;3.85;2.92;;;23.20;66.20;;;;;;5024450;28;20054;-86
2023/08/16 00:50:00;;;;;;;5.60;3.97;;;23.20;66.20;;;;;;5023311;28;20132;-89
2023/08/16 00:52:28;;;;;;;9.05;6.15;;;23.20;66.30;;;;;;5024154;28;20092;-90
2023/08/16 00:54:56;;;;;;;6.75;4.30;;;23.20;66.30;;;;;;5023863;28;20049;-86
2023/08/16 00:57:24;;;;;;;5.28;3.15;;;23.20;66.30;;;;;;5022198;28;20053;-89
2023/08/16 00:59:51;;;;;;;5.25;3.38;;;23.20;66.30;;;;;;5024004;28;20053;-90
2023/08/16 01:02:19;;;;;;;4.00;2.92;;;23.20;66.30;;;;;;5024708;28;20068;-84
2023/08/16 01:04:47;;;;;;;4.95;3.40;;;23.20;66.30;;;;;;5023064;28;20062;-86
2023/08/16 01:09:57;;;;;;;3.97;2.88;;;23.10;67.10;;;;;;5023505;28;20053;-88
2023/08/16 01:12:30;;;;;;;3.65;2.85;;;23.20;66.40;;;;;;5022369;28;20057;-88
2023/08/16 01:15:04;;;;;;;4.27;3.70;;;23.20;66.50;;;;;;5023921;28;20045;-88
2023/08/16 01:17:31;;;;;;;6.43;3.40;;;23.20;66.40;;;;;;5024219;28;20053;-87
2023/08/16 01:20:03;;;;;;;5.45;2.70;;;23.20;66.40;;;;;;5022785;28;20061;-88
2023/08/16 01:22:39;;;;;;;3.92;2.85;;;23.20;66.40;;;;;;5023277;28;20061;-86
2023/08/16 01:25:22;;;;;;;3.47;2.83;;;23.20;66.40;;;;;;5023250;28;20049;-87
2023/08/16 01:27:52;;;;;;;4.28;2.72;;;23.10;66.50;;;;;;5021602;28;20045;-87
2023/08/16 01:30:21;;;;;;;3.05;2.72;;;23.10;66.50;;;;;;5023588;28;20064;-88
2023/08/16 01:32:48;;;;;;;5.22;3.33;;;23.10;66.60;;;;;;5024263;28;20497;-87
2023/08/16 01:35:16;;;;;;;5.93;2.60;;;23.10;66.70;;;;;;5023415;28;20049;-86
2023/08/16 01:37:44;;;;;;;3.33;2.92;;;23.10;66.70;;;;;;5016571;28;20053;-86
2023/08/16 01:40:12;;;;;;;3.65;2.90;;;23.10;66.70;;;;;;5022408;28;20465;-86
2023/08/16 01:42:43;;;;;;;3.60;2.75;;;23.10;66.70;;;;;;5021186;28;20057;-87
2023/08/16 01:45:13;;;;;;;5.00;3.03;;;23.10;66.70;;;;;;5021902;28;20504;-88
2023/08/16 01:47:40;;;;;;;3.28;2.75;;;23.10;66.70;;;;;;5022993;28;20053;-87
2023/08/16 01:50:09;;;;;;;4.57;2.78;;;23.10;66.70;;;;;;5022596;28;20385;-87
2023/08/16 01:52:36;;;;;;;2.90;2.67;;;23.10;66.70;;;;;;5022983;28;20066;-87
2023/08/16 01:55:04;;;;;;;6.65;3.25;;;23.10;66.60;;;;;;5023080;28;20084;-87
2023/08/16 01:57:32;;;;;;;5.25;2.88;;;23.10;66.60;;;;;;5020860;28;20488;-86
2023/08/16 01:59:59;;;;;;;3.90;2.60;;;23.10;66.60;;;;;;5022797;28;20080;-87
2023/08/16 02:02:28;;;;;;;3.58;2.75;;;23.10;66.50;;;;;;5022724;28;20057;-86
2023/08/16 02:04:55;;;;;;;5.53;2.83;;;23.10;66.50;;;;;;5022000;28;20053;-88
2023/08/16 02:07:23;;;;;;;3.30;2.97;;;23.10;66.40;;;;;;5022384;28;20053;-87
2023/08/16 02:09:50;;;;;;;3.13;2.78;;;23.10;66.30;;;;;;5022750;28;20057;-87
2023/08/16 02:12:17;;;;;;;4.65;3.35;;;23.10;66.30;;;;;;5021309;28;20061;-87
2023/08/16 02:14:45;;;;;;;5.13;2.67;;;23.10;66.30;;;;;;5021317;28;20053;-87
2023/08/16 02:17:12;;;;;;;7.47;3.70;;;23.00;66.10;;;;;;5022673;28;20052;-87
2023/08/16 02:19:41;;;;;;;5.45;2.88;;;23.10;66.10;;;;;;5022999;28;20060;-87
2023/08/16 02:22:09;;;;;;;8.80;2.83;;;23.00;66.00;;;;;;5020018;28;20049;-90
2023/08/16 02:24:36;;;;;;;3.80;2.83;;;23.00;66.00;;;;;;5023166;28;20053;-88
2023/08/16 02:27:03;;;;;;;4.05;3.30;;;23.00;65.90;;;;;;5021068;28;20175;-89
2023/08/16 02:29:31;;;;;;;4.50;3.08;;;23.00;65.80;;;;;;5022564;28;21084;-88
2023/08/16 02:31:58;;;;;;;3.78;3.20;;;23.00;65.80;;;;;;5022244;28;20045;-86
2023/08/16 02:34:25;;;;;;;3.38;3.05;;;23.00;66.00;;;;;;5021325;28;20060;-86
2023/08/16 02:36:54;;;;;;;5.43;3.85;;;22.90;66.00;;;;;;5021559;28;20390;-89
2023/08/16 02:39:22;;;;;;;4.72;3.30;;;22.90;66.20;;;;;;5022469;28;20057;-88
2023/08/16 02:41:49;;;;;;;5.82;2.95;;;22.90;66.30;;;;;;5020771;28;20053;-86
2023/08/16 02:44:17;;;;;;;3.65;3.10;;;22.90;66.40;;;;;;5021351;28;20492;-88
2023/08/16 02:46:47;;;;;;;4.25;2.97;;;22.90;66.60;;;;;;5021209;28;20049;-86
2023/08/16 02:49:17;;;;;;;3.45;3.00;;;22.90;66.80;;;;;;5022543;28;20056;-88
2023/08/16 02:51:45;;;;;;;5.28;2.92;;;22.90;66.80;;;;;;5022043;28;20470;-87
2023/08/16 02:54:14;;;;;;;5.85;3.10;;;22.90;66.90;;;;;;5021487;28;20064;-86
2023/08/16 02:56:41;;;;;;;9.00;3.47;;;22.90;66.90;;;;;;5020689;28;20053;-88
2023/08/16 02:59:12;;;;;;;5.57;3.22;;;22.90;67.00;;;;;;5021071;28;20355;-85
2023/08/16 03:01:39;;;;;;;4.40;2.88;;;22.90;67.10;;;;;;5021796;28;20509;-87
2023/08/16 03:04:07;;;;;;;4.38;3.58;;;22.90;67.10;;;;;;5021106;28;20053;-87
2023/08/16 03:06:35;;;;;;;4.50;3.45;;;22.90;67.20;;;;;;5021972;28;20156;-88
2023/08/16 03:09:03;;;;;;;7.07;3.47;;;23.00;67.40;;;;;;5021418;28;20054;-84
2023/08/16 03:11:32;;;;;;;8.20;3.47;;;23.00;67.40;;;;;;5021359;28;20064;-86
2023/08/16 03:13:59;;;;;;;6.57;3.70;;;23.00;67.50;;;;;;5021421;28;20056;-87
2023/08/16 03:16:27;;;;;;;7.15;4.03;;;23.00;67.50;;;;;;5021086;28;20073;-88
2023/08/16 03:18:54;;;;;;;4.95;3.97;;;23.00;67.50;;;;;;5021495;28;20064;-88
2023/08/16 03:21:23;;;;;;;6.35;3.17;;;23.00;67.50;;;;;;5020772;28;20068;-88
2023/08/16 03:23:50;;;;;;;4.03;3.20;;;23.00;67.40;;;;;;5022424;28;20061;-83
2023/08/16 03:26:17;;;;;;;4.32;3.20;;;23.00;67.30;;;;;;5020613;28;20061;-84
2023/08/16 03:28:46;;;;;;;4.95;2.90;;;23.00;67.30;;;;;;5020523;28;20053;-82
2023/08/16 03:31:13;;;;;;;6.35;2.95;;;23.00;67.20;;;;;;5020971;28;20056;-85
2023/08/16 03:33:41;;;;;;;3.60;3.03;;;23.00;67.20;;;;;;5019266;28;20057;-83
2023/08/16 03:36:08;;;;;;;4.45;3.03;;;23.00;67.20;;;;;;5019227;28;20058;-86
2023/08/16 03:38:35;;;;;;;3.72;2.70;;;23.00;67.20;;;;;;5020733;28;20615;-84
2023/08/16 03:41:03;;;;;;;4.20;2.80;;;23.00;67.20;;;;;;5021433;28;20504;-86
2023/08/16 03:43:31;;;;;;;4.03;2.63;;;23.00;67.20;;;;;;5020459;28;20429;-84
2023/08/16 03:45:59;;;;;;;3.92;3.28;;;23.00;67.20;;;;;;5021443;28;20065;-84
2023/08/16 03:48:27;;;;;;;3.22;2.92;;;23.00;67.20;;;;;;5021122;28;20053;-85
2023/08/16 03:50:54;;;;;;;3.70;3.28;;;23.00;67.20;;;;;;5021736;28;20049;-84
2023/08/16 03:53:21;;;;;;;8.23;3.50;;;23.00;67.20;;;;;;5020778;28;20401;-84
2023/08/16 03:55:49;;;;;;;4.03;3.13;;;23.00;67.20;;;;;;5018308;28;20050;-85
2023/08/16 03:58:16;;;;;;;5.43;3.15;;;23.00;67.10;;;;;;5019613;28;20049;-85
2023/08/16 04:00:48;;;;;;;8.23;3.38;;;23.00;67.10;;;;;;5019462;28;20496;-84
2023/08/16 04:03:17;;;;;;;3.53;3.22;;;23.00;67.10;;;;;;5021007;28;20481;-84
2023/08/16 04:05:44;;;;;;;3.95;3.50;;;23.00;67.10;;;;;;5023300;28;20064;-85
2023/08/16 04:08:11;;;;;;;6.63;3.40;;;23.00;67.10;;;;;;5017058;28;21085;-84
2023/08/16 04:10:39;;;;;;;3.67;2.90;;;23.00;67.10;;;;;;5023779;28;20501;-84
2023/08/16 04:13:06;;;;;;;5.85;3.55;;;23.00;67.20;;;;;;5021513;28;20413;-83
2023/08/16 04:15:33;;;;;;;3.53;3.22;;;23.00;67.20;;;;;;5018781;28;20049;-85
2023/08/16 04:18:01;;;;;;;5.35;3.78;;;23.00;67.20;;;;;;5015112;28;20057;-83
2023/08/16 04:20:29;;;;;;;3.30;2.95;;;23.00;67.10;;;;;;5030061;28;20497;-83
2023/08/16 04:22:57;;;;;;;6.53;3.42;;;23.00;67.20;;;;;;5025619;28;20060;-83
2023/08/16 04:25:24;;;;;;;4.03;3.63;;;23.00;67.10;;;;;;5023080;28;20065;-84
2023/08/16 04:27:51;;;;;;;5.75;4.05;;;23.00;67.20;;;;;;5030038;28;20172;-84
2023/08/16 04:30:18;;;;;;;6.35;3.70;;;23.00;67.20;;;;;;5017892;28;20049;-84
2023/08/16 04:32:46;;;;;;;4.72;3.92;;;23.00;67.10;;;;;;5027173;28;20374;-83
2023/08/16 04:35:13;;;;;;;4.05;3.30;;;23.00;67.00;;;;;;5025473;28;20056;-88
2023/08/16 04:37:42;;;;;;;5.63;3.40;;;23.00;67.00;;;;;;5025853;28;20048;-87
2023/08/16 04:40:10;;;;;;;4.53;3.55;;;23.00;67.10;;;;;;5025160;28;20390;-87
2023/08/16 04:42:38;;;;;;;4.68;3.75;;;22.90;67.00;;;;;;5030442;28;20045;-87
2023/08/16 04:45:06;;;;;;;9.77;4.85;;;23.00;66.90;;;;;;5025267;28;20065;-88
2023/08/16 04:47:33;;;;;;;7.47;4.10;;;22.90;66.80;;;;;;5024711;28;20065;-88
2023/08/16 04:50:03;;;;;;;4.75;4.15;;;22.90;66.70;;;;;;5024221;28;20084;-86
2023/08/16 04:52:30;;;;;;;4.80;4.03;;;22.90;66.80;;;;;;5025515;28;20053;-90
2023/08/16 04:54:59;;;;;;;7.72;4.88;;;22.90;66.90;;;;;;5025182;28;20064;-86
2023/08/16 04:57:27;;;;;;;4.78;3.70;;;22.90;67.00;;;;;;5021770;28;20151;-90
2023/08/16 04:59:54;;;;;;;5.05;4.20;;;22.90;67.10;;;;;;5024605;28;20496;-89
2023/08/16 05:02:21;;;;;;;4.88;3.50;;;22.80;67.90;;;;;;5031998;28;20053;-89
2023/08/16 05:04:49;;;;;;;4.97;4.03;;;22.80;67.40;;;;;;5026208;28;20064;-88
2023/08/16 05:07:16;;;;;;;6.88;4.95;;;22.90;67.70;;;;;;5025538;28;20049;-87
2023/08/16 05:09:43;;;;;;;7.60;4.40;;;22.80;67.80;;;;;;5025747;28;20410;-86
2023/08/16 05:12:12;;;;;;;4.75;4.25;;;22.80;68.00;;;;;;5024356;28;20057;-87
2023/08/16 05:14:39;;;;;;;8.18;5.05;;;22.80;68.20;;;;;;5024809;28;20057;-90
2023/08/16 05:17:06;;;;;;;6.40;5.13;;;22.80;68.40;;;;;;5024062;28;20052;-89
2023/08/16 05:19:34;;;;;;;7.43;5.25;;;22.70;68.60;;;;;;5025513;28;20056;-88
2023/08/16 05:22:01;;;;;;;8.52;5.80;;;22.80;68.90;;;;;;5021632;28;20064;-89
2023/08/16 05:24:29;;;;;;;12.95;8.93;;;22.70;69.00;;;;;;5023737;28;20062;-89
2023/08/16 05:26:56;;;;;;;7.05;5.20;;;22.70;69.20;;;;;;5022557;28;20080;-88
2023/08/16 05:29:25;;;;;;;10.70;7.30;;;22.70;69.30;;;;;;5024776;28;20061;-88
2023/08/16 05:31:52;;;;;;;9.88;6.45;;;22.70;69.50;;;;;;5024699;28;20561;-88
2023/08/16 05:34:20;;;;;;;15.45;9.95;;;22.70;69.70;;;;;;5025591;28;20061;-88
2023/08/16 05:36:48;;;;;;;20.17;10.63;;;22.70;69.90;;;;;;5023237;28;20072;-89
2023/08/16 05:39:15;;;;;;;17.80;11.10;;;22.70;70.00;;;;;;5023652;28;20604;-87
2023/08/16 05:41:43;;;;;;;28.38;13.48;;;22.70;70.70;;;;;;5021812;28;20076;-88
2023/08/16 05:44:10;;;;;;;30.63;15.07;;;22.70;70.00;;;;;;5023264;28;20053;-85
2023/08/16 05:46:39;;;;;;;29.10;16.02;;;22.80;70.00;;;;;;5023236;28;20050;-87
2023/08/16 05:49:06;;;;;;;37.55;19.35;;;22.80;70.00;;;;;;5023582;28;20049;-85
2023/08/16 05:51:33;;;;;;;40.25;22.13;;;22.80;70.00;;;;;;5023646;28;20061;-84
2023/08/16 05:54:02;;;;;;;38.47;20.27;;;22.80;70.00;;;;;;5023192;28;20060;-84
2023/08/16 05:56:29;;;;;;;42.10;21.73;;;22.90;70.00;;;;;;5018052;28;20057;-85
2023/08/16 05:58:57;;;;;;;49.25;25.27;;;22.90;70.00;;;;;;5018096;28;20053;-85
2023/08/16 06:01:24;;;;;;;39.55;20.52;;;22.90;69.70;;;;;;5022083;28;20080;-85
2023/08/16 06:03:53;;;;;;;37.40;19.70;;;22.90;69.60;;;;;;5022244;28;20065;-85
2023/08/16 06:06:20;;;;;;;35.80;19.83;;;22.90;69.70;;;;;;5022745;28;20516;-86
2023/08/16 06:08:47;;;;;;;28.80;17.05;;;22.90;69.80;;;;;;5023362;28;20060;-86
2023/08/16 06:11:14;;;;;;;20.80;13.73;;;22.90;69.90;;;;;;5021051;28;20053;-86
2023/08/16 06:13:42;;;;;;;17.65;11.30;;;22.90;70.00;;;;;;5022918;28;20053;-85
2023/08/16 06:16:10;;;;;;;21.10;11.88;;;23.00;70.10;;;;;;5022509;28;20063;-84
2023/08/16 06:18:37;;;;;;;25.75;14.82;;;23.10;70.30;;;;;;5022881;28;20474;-85
2023/08/16 06:21:06;;;;;;;25.15;15.07;;;23.10;70.20;;;;;;5022665;28;20386;-86
2023/08/16 06:23:33;;;;;;;24.73;15.25;;;23.10;70.10;;;;;;5022858;28;20413;-86
2023/08/16 06:26:01;;;;;;;22.90;14.63;;;23.10;70.60;;;;;;5021801;28;20401;-84
2023/08/16 06:28:28;;;;;;;31.85;17.30;;;23.10;70.50;;;;;;5020125;28;20402;-84
2023/08/16 06:30:56;;;;;;;32.85;17.75;;;23.20;69.60;;;;;;5022177;28;20045;-86
2023/08/16 06:33:23;;;;;;;33.72;18.40;;;23.20;69.40;;;;;;5022052;28;20068;-84
2023/08/16 06:35:52;;;;;;;36.33;18.45;;;23.20;69.20;;;;;;5023160;28;20508;-85
2023/08/16 06:38:21;;;;;;;30.15;16.98;;;23.20;69.10;;;;;;5021482;28;20060;-84
2023/08/16 06:40:49;;;;;;;37.53;19.10;;;23.20;69.00;;;;;;5022206;28;20057;-84
2023/08/16 06:43:17;;;;;;;38.17;20.17;;;23.30;69.00;;;;;;5020548;28;20053;-85
2023/08/16 06:45:44;;;;;;;61.38;27.38;;;23.30;69.50;;;;;;5022955;28;20058;-85
2023/08/16 06:48:11;;;;;;;71.50;30.27;;;23.30;68.50;;;;;;5021765;28;20049;-84
2023/08/16 06:50:39;;;;;;;61.45;27.98;;;23.30;68.40;;;;;;5022327;28;20060;-86
2023/08/16 06:53:06;;;;;;;46.13;21.90;;;23.30;68.40;;;;;;5021813;28;20060;-85
2023/08/16 06:55:36;;;;;;;37.92;19.33;;;23.30;68.50;;;;;;5022762;28;20080;-87
2023/08/16 06:58:05;;;;;;;40.15;19.45;;;23.30;68.70;;;;;;5019608;28;20061;-87
2023/08/16 07:00:32;;;;;;;25.45;14.70;;;23.30;68.80;;;;;;5022468;28;20060;-86
2023/08/16 07:03:02;;;;;;;24.40;14.38;;;23.30;68.90;;;;;;5021653;28;20061;-86
2023/08/16 07:05:29;;;;;;;32.10;16.98;;;23.30;68.90;;;;;;5021811;28;20053;-87
2023/08/16 07:07:56;;;;;;;64.20;29.88;;;23.30;69.10;;;;;;5021669;28;20057;-87
2023/08/16 07:10:24;;;;;;;73.70;34.08;;;23.30;69.10;;;;;;5020710;28;20509;-87
2023/08/16 07:12:52;;;;;;;82.00;34.85;;;23.30;69.00;;;;;;5020966;28;20057;-86
2023/08/16 07:15:20;;;;;;;81.07;34.92;;;23.30;68.90;;;;;;5022007;28;20057;-87
2023/08/16 07:17:47;;;;;;;74.28;33.30;;;23.30;69.00;;;;;;5022856;28;20056;-89
2023/08/16 07:20:14;;;;;;;68.45;32.17;;;23.20;69.20;;;;;;5022214;28;20520;-88
2023/08/16 07:22:41;;;;;;;68.38;30.27;;;23.20;69.50;;;;;;5021632;28;20057;-87
2023/08/16 07:25:11;;;;;;;81.40;34.47;;;23.10;69.90;;;;;;5021498;28;20064;-89
2023/08/16 07:27:39;;;;;;;93.53;35.00;;;23.10;70.30;;;;;;5019343;28;20049;-88
2023/08/16 07:30:08;;;;;;;99.72;34.90;;;23.10;70.50;;;;;;5020380;28;20056;-90
2023/08/16 07:32:36;;;;;;;79.38;33.25;;;23.10;70.70;;;;;;5022429;28;20069;-87
2023/08/16 07:35:03;;;;;;;107.05;35.00;;;23.10;70.80;;;;;;5021713;28;20072;-86
2023/08/16 07:37:32;;;;;;;86.40;33.42;;;23.00;70.70;;;;;;5028647;28;20054;-87
2023/08/16 07:40:00;;;;;;;94.65;34.17;;;23.00;70.90;;;;;;5021845;28;20064;-88
2023/08/16 07:42:27;;;;;;;77.00;33.08;;;23.00;71.10;;;;;;5020194;28;20147;-87
2023/08/16 07:44:57;;;;;;;68.38;30.58;;;22.90;71.30;;;;;;5022121;28;20375;-87
2023/08/16 07:47:27;;;;;;;82.72;34.90;;;22.90;71.50;;;;;;5020663;28;20064;-92
2023/08/16 07:49:55;;;;;;;83.38;33.22;;;22.90;71.70;;;;;;5020694;28;20053;-88
2023/08/16 07:52:23;;;;;;;80.32;34.47;;;22.90;71.90;;;;;;5020359;28;20053;-92
2023/08/16 07:54:50;;;;;;;80.78;33.75;;;22.90;72.30;;;;;;5020961;28;20061;-87
2023/08/16 07:57:17;;;;;;;75.47;31.75;;;22.80;72.70;;;;;;5019244;28;20064;-88
2023/08/16 07:59:45;;;;;;;73.18;29.98;;;22.80;72.90;;;;;;5020091;28;20397;-87
2023/08/16 08:02:12;;;;;;;62.85;28.63;;;22.80;73.10;;;;;;5020238;28;20056;-87
2023/08/16 08:04:41;;;;;;;58.95;26.85;;;22.80;73.30;;;;;;5020829;28;20064;-86
2023/08/16 08:07:08;;;;;;;58.15;26.38;;;22.80;73.30;;;;;;5020678;28;20465;-85
2023/08/16 08:09:35;;;;;;;69.32;29.05;;;22.80;73.40;;;;;;5020762;28;20425;-84
2023/08/16 08:12:03;;;;;;;52.00;24.33;;;22.80;73.50;;;;;;5019887;28;20068;-86
2023/08/16 08:14:30;;;;;;;41.92;20.05;;;22.80;73.50;;;;;;5021251;28;20061;-85
2023/08/16 08:16:57;;;;;;;59.85;24.35;;;22.80;73.60;;;;;;5021182;28;20056;-87
2023/08/16 08:19:25;;;;;;;57.42;25.63;;;22.80;73.70;;;;;;5020666;28;20061;-86
2023/08/16 08:21:54;;;;;;;50.80;25.08;;;22.90;73.20;;;;;;5019837;28;20628;-87
2023/08/16 08:24:21;;;;;;;48.72;22.95;;;22.90;73.00;;;;;;5021272;28;20493;-87
2023/08/16 08:26:49;;;;;;;54.22;25.48;;;22.90;73.20;;;;;;5012555;28;20061;-87
2023/08/16 08:29:18;;;;;;;49.13;25.42;;;22.90;73.10;;;;;;5020136;28;20049;-86
2023/08/16 08:31:45;;;;;;;55.50;26.10;;;22.90;73.10;;;;;;5019896;28;20068;-89
2023/08/16 08:34:14;;;;;;;54.42;24.33;;;22.90;73.10;;;;;;5010458;28;20064;-89
2023/08/16 08:36:41;;;;;;;45.78;21.45;;;22.90;73.20;;;;;;5019461;28;20068;-88
2023/08/16 08:39:10;;;;;;;33.60;18.88;;;22.90;73.50;;;;;;5019944;28;20050;-86
2023/08/16 08:41:38;;;;;;;42.35;20.02;;;22.90;74.60;;;;;;5019329;28;20063;-86
2023/08/16 08:44:06;;;;;;;33.72;17.70;;;23.00;74.10;;;;;;5020260;28;20057;-84
2023/08/16 08:46:34;;;;;;;42.80;22.95;;;23.00;74.30;;;;;;5020077;28;20060;-87
2023/08/16 08:49:01;;;;;;;43.95;23.05;;;23.00;73.90;;;;;;5016601;28;20049;-87
2023/08/16 08:51:30;;;;;;;44.85;22.63;;;23.10;73.70;;;;;;5019939;28;20053;-87
2023/08/16 08:53:58;;;;;;;33.50;18.85;;;23.10;73.50;;;;;;5029081;28;20537;-86
2023/08/16 08:56:28;;;;;;;37.50;18.75;;;23.10;73.50;;;;;;5021692;28;20061;-87
2023/08/16 08:58:56;;;;;;;41.65;20.50;;;23.20;73.60;;;;;;5022141;28;20056;-86
2023/08/16 09:01:24;;;;;;;42.70;21.20;;;23.20;73.60;;;;;;5022912;28;20064;-86
2023/08/16 09:03:53;;;;;;;31.98;18.40;;;23.30;73.30;;;;;;5023627;28;20060;-87
2023/08/16 09:06:21;;;;;;;35.60;18.00;;;23.30;73.30;;;;;;5023097;28;20053;-87
2023/08/16 09:08:49;;;;;;;34.58;17.85;;;23.40;73.30;;;;;;5023068;28;20061;-87
2023/08/16 09:11:17;;;;;;;38.88;21.48;;;23.50;73.20;;;;;;5018060;28;20773;-88
2023/08/16 09:13:47;;;;;;;32.63;18.80;;;23.50;72.90;;;;;;5017264;28;20062;-88
2023/08/16 09:16:14;;;;;;;30.85;16.90;;;23.60;72.70;;;;;;5021848;28;20050;-89
2023/08/16 09:18:47;;;;;;;30.25;17.13;;;23.60;72.70;;;;;;5023209;28;20056;-88
2023/08/16 09:21:16;;;;;;;31.30;17.15;;;23.70;72.70;;;;;;5019826;28;20041;-88
2023/08/16 09:23:43;;;;;;;33.58;16.17;;;23.70;72.50;;;;;;5015785;28;20505;-88
2023/08/16 09:26:15;;;;;;;25.80;16.25;;;23.80;72.30;;;;;;5020271;28;20049;-88
2023/08/16 09:28:42;;;;;;;30.33;16.98;;;23.80;72.00;;;;;;5023608;28;20053;-88
2023/08/16 09:31:11;;;;;;;35.85;19.13;;;23.80;71.80;;;;;;5017470;28;20053;-87
2023/08/16 09:33:39;;;;;;;33.00;18.30;;;23.90;71.60;;;;;;5021762;28;20049;-93
2023/08/16 09:36:06;;;;;;;32.70;18.27;;;23.90;71.50;;;;;;5013130;28;20064;-88
2023/08/16 09:38:41;;;;;;;33.78;18.23;;;24.00;71.40;;;;;;5022383;28;20053;-87
2023/08/16 09:41:15;;;;;;;32.00;18.00;;;24.10;71.30;;;;;;5022085;28;20075;-87
2023/08/16 09:43:43;;;;;;;37.42;19.15;;;24.10;71.20;;;;;;5022701;28;20054;-87
2023/08/16 09:46:17;;;;;;;40.58;22.13;;;24.10;71.10;;;;;;5021982;28;20080;-87
2023/08/16 09:48:45;;;;;;;35.85;19.27;;;24.20;70.70;;;;;;5025402;28;20056;-91
2023/08/16 09:51:12;;;;;;;34.58;19.00;;;24.20;70.60;;;;;;5023824;28;20060;-87
2023/08/16 09:53:46;;;;;;;40.42;20.90;;;24.20;70.40;;;;;;5024135;28;20071;-87
2023/08/16 09:56:17;;;;;;;36.35;19.98;;;24.20;69.90;;;;;;5022125;28;20412;-89
2023/08/16 09:58:44;;;;;;;33.47;19.98;;;24.30;69.40;;;;;;5023244;28;20057;-87
2023/08/16 10:01:13;;;;;;;35.85;19.38;;;24.30;69.00;;;;;;5020434;28;20053;-88
2023/08/16 10:03:41;;;;;;;30.45;17.80;;;24.30;69.20;;;;;;5014811;28;20076;-87
2023/08/16 10:06:09;;;;;;;33.67;18.30;;;24.30;69.40;;;;;;5022686;28;20045;-87
2023/08/16 10:08:36;;;;;;;31.00;17.98;;;24.30;69.60;;;;;;5022102;28;20049;-87
2023/08/16 10:11:06;;;;;;;28.70;18.30;;;24.40;69.70;;;;;;5012977;28;20504;-87
2023/08/16 10:13:34;;;;;;;31.40;18.63;;;24.40;69.60;;;;;;5021341;28;20738;-86
2023/08/16 10:16:02;;;;;;;31.38;18.08;;;24.40;69.50;;;;;;5028561;28;20056;-88
2023/08/16 10:18:32;;;;;;;29.05;17.90;;;24.50;69.50;;;;;;5022931;28;20058;-87
2023/08/16 10:21:00;;;;;;;30.42;17.80;;;24.50;69.50;;;;;;5023269;28;20397;-87
2023/08/16 10:23:29;;;;;;;35.75;18.55;;;24.60;69.50;;;;;;5028370;28;20049;-87
2023/08/16 10:26:01;;;;;;;34.67;21.02;;;24.70;69.80;;;;;;5022130;28;20069;-86
2023/08/16 10:28:31;;;;;;;29.75;17.08;;;24.70;68.40;;;;;;5021232;28;20073;-86
2023/08/16 10:31:00;;;;;;;25.70;15.23;;;24.80;67.30;;;;;;5023171;28;20045;-85
2023/08/16 10:33:36;;;;;;;29.27;17.30;;;24.80;67.50;;;;;;5022411;28;20064;-87
2023/08/16 10:36:04;;;;;;;20.95;13.65;;;24.70;66.40;;;;;;5022799;28;20484;-87
2023/08/16 10:38:38;;;;;;;20.42;13.25;;;24.70;66.70;;;;;;5023299;28;20482;-86
2023/08/16 10:41:12;;;;;;;17.60;12.15;;;24.70;66.60;;;;;;5020133;28;21027;-86
2023/08/16 10:43:45;;;;;;;16.98;11.45;;;24.80;66.70;;;;;;5022637;28;20476;-86
2023/08/16 10:46:12;;;;;;;20.20;12.55;;;24.80;66.90;;;;;;5021805;28;20049;-87
2023/08/16 10:48:42;;;;;;;21.92;11.60;;;24.90;66.80;;;;;;5022084;28;20061;-86
2023/08/16 10:51:09;;;;;;;17.90;11.63;;;24.80;66.70;;;;;;5026300;28;20057;-86
2023/08/16 10:53:37;;;;;;;20.20;11.65;;;24.90;67.10;;;;;;5029028;28;20084;-85
2023/08/16 10:56:06;;;;;;;21.83;13.30;;;25.00;67.40;;;;;;5021903;28;20493;-86
2023/08/16 10:58:44;;;;;;;27.80;17.55;;;25.00;67.70;;;;;;5018843;28;20531;-86
2023/08/16 11:01:12;;;;;;;23.48;14.43;;;25.00;67.20;;;;;;5021450;28;20056;-87
2023/08/16 11:03:43;;;;;;;22.10;13.38;;;25.10;68.30;;;;;;5021217;28;20065;-85
2023/08/16 11:06:12;;;;;;;19.15;12.13;;;25.20;67.50;;;;;;5022021;28;20595;-86
2023/08/16 11:08:41;;;;;;;18.75;11.88;;;25.20;67.30;;;;;;5021628;28;20053;-86
2023/08/16 11:11:09;;;;;;;22.33;11.50;;;25.30;67.00;;;;;;5019243;28;20461;-86
2023/08/16 11:13:36;;;;;;;17.08;10.60;;;25.30;66.60;;;;;;5019768;28;20064;-86
2023/08/16 11:16:04;;;;;;;20.92;11.60;;;25.40;66.50;;;;;;5021591;28;20049;-86
2023/08/16 11:18:33;;;;;;;21.02;12.98;;;25.40;66.10;;;;;;5021809;28;20045;-87
2023/08/16 11:21:03;;;;;;;19.30;11.55;;;25.40;64.30;;;;;;5021485;28;20045;-86
2023/08/16 11:23:30;;;;;;;17.15;10.35;;;25.50;63.30;;;;;;5020915;28;20061;-87
2023/08/16 11:26:00;;;;;;;17.20;10.93;;;25.50;63.50;;;;;;5022260;28;20064;-86
2023/08/16 11:28:28;;;;;;;19.42;11.68;;;25.50;64.00;;;;;;5018796;28;20061;-87
2023/08/16 11:30:59;;;;;;;16.95;10.73;;;25.50;62.90;;;;;;5020827;28;20045;-86
2023/08/16 11:33:32;;;;;;;22.85;12.35;;;25.50;62.70;;;;;;5020351;28;20064;-86
2023/08/16 11:36:02;;;;;;;16.95;10.93;;;25.50;62.70;;;;;;5021556;28;20048;-88
2023/08/16 11:38:29;;;;;;;16.77;9.65;;;25.50;62.40;;;;;;5021336;28;20056;-87
2023/08/16 11:40:57;;;;;;;18.50;9.63;;;25.50;63.20;;;;;;5027012;28;20057;-87
2023/08/16 11:43:28;;;;;;;16.10;9.73;;;25.60;63.70;;;;;;5020401;28;20063;-87
2023/08/16 11:45:57;;;;;;;14.27;8.95;;;25.60;62.90;;;;;;5020522;28;20069;-88
2023/08/16 11:48:25;;;;;;;14.05;9.80;;;25.60;63.40;;;;;;5020451;28;20509;-87
2023/08/16 11:50:53;;;;;;;13.68;8.65;;;25.70;62.50;;;;;;5020196;28;20470;-87
2023/08/16 11:53:22;;;;;;;15.68;9.30;;;25.80;62.80;;;;;;5018391;28;20052;-87
2023/08/16 11:55:59;;;;;;;15.57;9.65;;;25.80;63.00;;;;;;5020636;28;20057;-87
2023/08/16 11:58:27;;;;;;;14.18;8.95;;;25.90;62.60;;;;;;5018513;28;20053;-87
2023/08/16 12:00:55;;;;;;;18.02;10.55;;;25.90;62.60;;;;;;5019767;28;20049;-88
2023/08/16 12:03:23;;;;;;;16.25;10.30;;;26.00;62.30;;;;;;5020474;28;20065;-87
2023/08/16 12:05:50;;;;;;;15.55;9.20;;;26.00;61.40;;;;;;5020731;28;20163;-87
2023/08/16 12:08:22;;;;;;;18.08;11.15;;;26.10;62.00;;;;;;5020879;28;20417;-87
2023/08/16 12:10:54;;;;;;;22.00;11.95;;;26.10;60.20;;;;;;5019815;28;20064;-87
2023/08/16 12:13:22;;;;;;;15.15;9.10;;;26.10;59.20;;;;;;5016836;28;20053;-87
2023/08/16 12:15:50;;;;;;;18.05;12.20;;;26.20;59.60;;;;;;5019686;28;20059;-87
2023/08/16 12:18:18;;;;;;;23.58;12.77;;;26.20;59.50;;;;;;5021367;28;20161;-88
2023/08/16 12:20:50;;;;;;;28.95;16.05;;;26.20;59.70;;;;;;5020981;28;20391;-87
2023/08/16 12:23:18;;;;;;;23.80;14.48;;;26.20;59.60;;;;;;5020069;28;20076;-87
2023/08/16 12:25:47;;;;;;;26.08;14.00;;;26.30;59.60;;;;;;5019540;28;20054;-87
2023/08/16 12:28:14;;;;;;;21.77;12.35;;;26.30;59.00;;;;;;5015339;28;20050;-88
2023/08/16 12:30:41;;;;;;;17.30;10.27;;;26.30;58.90;;;;;;5025210;28;20053;-87
2023/08/16 12:33:09;;;;;;;16.80;10.18;;;26.30;59.00;;;;;;5022899;28;20876;-87
2023/08/16 12:35:36;;;;;;;16.33;10.45;;;26.30;59.30;;;;;;5025307;28;20053;-87
2023/08/16 12:38:04;;;;;;;30.25;17.60;;;26.30;59.50;;;;;;5023976;28;20385;-86
2023/08/16 12:40:32;;;;;;;30.63;17.23;;;26.40;59.20;;;;;;5023544;28;20053;-88
2023/08/16 12:43:02;;;;;;;26.08;15.65;;;26.40;59.10;;;;;;5021405;28;20061;-89